sensor_id;sensor_type;location;lat;lon;timestamp;pressure;altitude;pressure_sealevel;temperature;humidity
19831;BME280;10076;52.008;4.708;2023-03-30T00:01:03;100503.81;;;15.76;100.00
19831;BME280;10076;52.008;4.708;2023-03-30T00:03:29;100512.94;;;15.73;100.00
19831;BME280;10076;52.008;4.708;2023-03-30T00:05:54;100540.69;;;15.71;100.00
19831;BME280;10076;52.008;4.708;2023-03-30T00:08:24;100533.16;;;15.66;100.00
19831;BME280;10076;52.008;4.708;2023-03-30T00:11:01;100522.69;;;15.82;100.00
19831;BME280;10076;52.008;4.708;2023-03-30T00:13:28;100518.00;;;15.67;100.00
19831;BME280;10076;52.008;4.708;2023-03-30T00:15:53;100513.59;;;15.75;100.00
19831;BME280;10076;52.008;4.708;2023-03-30T00:18:20;100507.16;;;15.78;100.00
19831;BME280;10076;52.008;4.708;2023-03-30T00:20:47;100511.22;;;15.82;100.00
19831;BME280;10076;52.008;4.708;2023-03-30T00:23:13;100526.44;;;15.89;100.00
19831;BME280;10076;52.008;4.708;2023-03-30T00:25:38;100517.13;;;15.76;100.00
19831;BME280;10076;52.008;4.708;2023-03-30T00:28:03;100526.66;;;15.95;100.00
19831;BME280;10076;52.008;4.708;2023-03-30T00:30:29;100525.72;;;15.87;100.00
19831;BME280;10076;52.008;4.708;2023-03-30T00:32:54;100538.59;;;15.91;100.00
19831;BME280;10076;52.008;4.708;2023-03-30T00:35:20;100541.72;;;15.87;100.00
19831;BME280;10076;52.008;4.708;2023-03-30T00:37:45;100531.81;;;15.80;100.00
19831;BME280;10076;52.008;4.708;2023-03-30T00:40:16;100523.28;;;15.76;100.00
19831;BME280;10076;52.008;4.708;2023-03-30T00:42:41;100526.09;;;15.75;100.00
19831;BME280;10076;52.008;4.708;2023-03-30T00:45:21;100513.72;;;15.83;100.00
19831;BME280;10076;52.008;4.708;2023-03-30T00:50:39;100499.97;;;15.61;100.00
19831;BME280;10076;52.008;4.708;2023-03-30T00:53:14;100497.50;;;15.77;100.00
19831;BME280;10076;52.008;4.708;2023-03-30T00:55:42;100496.50;;;15.78;100.00
19831;BME280;10076;52.008;4.708;2023-03-30T00:58:09;100502.66;;;15.51;100.00
19831;BME280;10076;52.008;4.708;2023-03-30T01:00:37;100513.84;;;15.55;100.00
19831;BME280;10076;52.008;4.708;2023-03-30T01:03:08;100514.13;;;15.61;100.00
19831;BME280;10076;52.008;4.708;2023-03-30T01:05:36;100503.78;;;15.49;100.00
19831;BME280;10076;52.008;4.708;2023-03-30T01:08:03;100508.25;;;15.58;100.00
19831;BME280;10076;52.008;4.708;2023-03-30T01:10:33;100497.66;;;15.48;100.00
19831;BME280;10076;52.008;4.708;2023-03-30T01:12:59;100499.38;;;15.40;100.00
19831;BME280;10076;52.008;4.708;2023-03-30T01:15:26;100499.19;;;15.51;100.00
19831;BME280;10076;52.008;4.708;2023-03-30T01:18:21;100496.00;;;15.38;100.00
19831;BME280;10076;52.008;4.708;2023-03-30T01:21:06;100489.28;;;15.43;100.00
19831;BME280;10076;52.008;4.708;2023-03-30T01:25:06;100496.28;;;15.44;100.00
19831;BME280;10076;52.008;4.708;2023-03-30T01:27:15;100496.91;;;15.56;100.00
19831;BME280;10076;52.008;4.708;2023-03-30T01:35:36;100474.09;;;15.53;100.00
19831;BME280;10076;52.008;4.708;2023-03-30T01:43:46;100457.28;;;15.53;100.00
19831;BME280;10076;52.008;4.708;2023-03-30T01:46:20;100457.34;;;15.43;100.00
19831;BME280;10076;52.008;4.708;2023-03-30T01:51:35;100451.13;;;15.52;100.00
19831;BME280;10076;52.008;4.708;2023-03-30T01:54:33;100449.34;;;15.43;100.00
19831;BME280;10076;52.008;4.708;2023-03-30T02:01:51;100455.13;;;14.93;100.00
19831;BME280;10076;52.008;4.708;2023-03-30T02:04:25;100454.38;;;15.10;100.00
19831;BME280;10076;52.008;4.708;2023-03-30T02:06:55;100461.72;;;14.99;100.00
19831;BME280;10076;52.008;4.708;2023-03-30T02:09:23;100470.94;;;14.95;100.00
19831;BME280;10076;52.008;4.708;2023-03-30T02:11:51;100468.13;;;14.96;100.00
19831;BME280;10076;52.008;4.708;2023-03-30T02:14:21;100472.19;;;15.00;100.00
19831;BME280;10076;52.008;4.708;2023-03-30T02:16:49;100473.00;;;15.01;100.00
19831;BME280;10076;52.008;4.708;2023-03-30T02:19:15;100461.38;;;15.11;100.00
19831;BME280;10076;52.008;4.708;2023-03-30T02:21:42;100467.13;;;15.07;100.00
19831;BME280;10076;52.008;4.708;2023-03-30T02:24:11;100471.69;;;15.14;100.00
19831;BME280;10076;52.008;4.708;2023-03-30T02:26:45;100474.13;;;15.08;100.00
19831;BME280;10076;52.008;4.708;2023-03-30T02:29:13;100472.25;;;15.18;100.00
19831;BME280;10076;52.008;4.708;2023-03-30T02:31:38;100473.28;;;15.07;100.00
19831;BME280;10076;52.008;4.708;2023-03-30T02:39:43;100453.66;;;15.08;100.00
19831;BME280;10076;52.008;4.708;2023-03-30T02:42:35;100452.50;;;15.20;100.00
19831;BME280;10076;52.008;4.708;2023-03-30T02:45:17;100454.50;;;15.18;100.00
19831;BME280;10076;52.008;4.708;2023-03-30T02:55:53;100433.91;;;15.11;100.00
19831;BME280;10076;52.008;4.708;2023-03-30T03:01:22;100435.63;;;15.02;100.00
19831;BME280;10076;52.008;4.708;2023-03-30T03:03:51;100447.84;;;14.95;100.00
19831;BME280;10076;52.008;4.708;2023-03-30T03:06:19;100443.78;;;14.91;100.00
19831;BME280;10076;52.008;4.708;2023-03-30T03:08:45;100443.38;;;14.86;100.00
19831;BME280;10076;52.008;4.708;2023-03-30T03:11:12;100444.69;;;14.82;100.00
19831;BME280;10076;52.008;4.708;2023-03-30T03:13:37;100449.81;;;14.93;100.00
19831;BME280;10076;52.008;4.708;2023-03-30T03:16:03;100437.34;;;14.94;100.00
19831;BME280;10076;52.008;4.708;2023-03-30T03:18:29;100436.22;;;14.96;100.00
19831;BME280;10076;52.008;4.708;2023-03-30T03:20:56;100435.13;;;14.99;100.00
19831;BME280;10076;52.008;4.708;2023-03-30T03:23:21;100431.31;;;15.01;100.00
19831;BME280;10076;52.008;4.708;2023-03-30T03:25:48;100421.81;;;14.99;100.00
19831;BME280;10076;52.008;4.708;2023-03-30T03:28:13;100424.19;;;15.02;100.00
19831;BME280;10076;52.008;4.708;2023-03-30T03:30:38;100412.91;;;14.90;100.00
19831;BME280;10076;52.008;4.708;2023-03-30T03:33:04;100426.88;;;14.92;100.00
19831;BME280;10076;52.008;4.708;2023-03-30T03:35:29;100417.47;;;14.98;100.00
19831;BME280;10076;52.008;4.708;2023-03-30T03:37:55;100414.66;;;14.99;100.00
19831;BME280;10076;52.008;4.708;2023-03-30T03:40:20;100419.16;;;14.99;100.00
19831;BME280;10076;52.008;4.708;2023-03-30T03:42:46;100412.22;;;14.79;100.00
19831;BME280;10076;52.008;4.708;2023-03-30T03:45:11;100413.56;;;14.92;100.00
19831;BME280;10076;52.008;4.708;2023-03-30T03:47:36;100398.56;;;15.01;100.00
19831;BME280;10076;52.008;4.708;2023-03-30T03:50:02;100414.66;;;14.99;100.00
19831;BME280;10076;52.008;4.708;2023-03-30T03:52:30;100411.84;;;15.01;100.00
19831;BME280;10076;52.008;4.708;2023-03-30T03:54:56;100417.44;;;15.07;100.00
19831;BME280;10076;52.008;4.708;2023-03-30T03:57:21;100416.16;;;15.11;100.00
19831;BME280;10076;52.008;4.708;2023-03-30T03:59:48;100418.03;;;15.01;100.00
19831;BME280;10076;52.008;4.708;2023-03-30T04:02:14;100419.03;;;14.91;100.00
19831;BME280;10076;52.008;4.708;2023-03-30T04:04:39;100424.59;;;14.97;100.00
19831;BME280;10076;52.008;4.708;2023-03-30T04:07:05;100425.50;;;14.79;100.00
19831;BME280;10076;52.008;4.708;2023-03-30T04:09:30;100422.56;;;14.82;100.00
19831;BME280;10076;52.008;4.708;2023-03-30T04:11:55;100415.06;;;14.58;100.00
19831;BME280;10076;52.008;4.708;2023-03-30T04:14:21;100430.22;;;14.30;100.00
19831;BME280;10076;52.008;4.708;2023-03-30T04:16:46;100434.38;;;14.04;100.00
19831;BME280;10076;52.008;4.708;2023-03-30T04:19:13;100430.78;;;13.86;100.00
19831;BME280;10076;52.008;4.708;2023-03-30T04:21:40;100435.63;;;13.62;100.00
19831;BME280;10076;52.008;4.708;2023-03-30T04:24:06;100451.53;;;13.62;100.00
19831;BME280;10076;52.008;4.708;2023-03-30T04:26:36;100459.19;;;13.56;100.00
19831;BME280;10076;52.008;4.708;2023-03-30T04:29:01;100445.22;;;13.44;100.00
19831;BME280;10076;52.008;4.708;2023-03-30T04:31:28;100451.47;;;13.43;100.00
19831;BME280;10076;52.008;4.708;2023-03-30T04:33:59;100440.59;;;13.46;100.00
19831;BME280;10076;52.008;4.708;2023-03-30T04:36:27;100451.91;;;13.48;100.00
19831;BME280;10076;52.008;4.708;2023-03-30T04:38:53;100459.16;;;13.46;100.00
19831;BME280;10076;52.008;4.708;2023-03-30T04:41:30;100443.53;;;13.43;100.00
19831;BME280;10076;52.008;4.708;2023-03-30T04:44:02;100431.25;;;13.52;100.00
19831;BME280;10076;52.008;4.708;2023-03-30T04:46:28;100419.91;;;13.40;100.00
19831;BME280;10076;52.008;4.708;2023-03-30T04:48:54;100425.22;;;13.40;100.00
19831;BME280;10076;52.008;4.708;2023-03-30T04:51:19;100434.75;;;13.43;100.00
19831;BME280;10076;52.008;4.708;2023-03-30T04:53:45;100421.47;;;13.43;100.00
19831;BME280;10076;52.008;4.708;2023-03-30T04:56:11;100423.69;;;13.38;100.00
19831;BME280;10076;52.008;4.708;2023-03-30T04:58:36;100420.03;;;13.29;100.00
19831;BME280;10076;52.008;4.708;2023-03-30T05:01:02;100411.38;;;13.27;100.00
19831;BME280;10076;52.008;4.708;2023-03-30T05:03:27;100421.56;;;13.32;100.00
19831;BME280;10076;52.008;4.708;2023-03-30T05:05:53;100418.38;;;13.28;100.00
19831;BME280;10076;52.008;4.708;2023-03-30T05:08:18;100408.56;;;13.19;100.00
19831;BME280;10076;52.008;4.708;2023-03-30T05:10:44;100406.34;;;13.24;100.00
19831;BME280;10076;52.008;4.708;2023-03-30T05:13:09;100406.00;;;13.09;100.00
19831;BME280;10076;52.008;4.708;2023-03-30T05:15:35;100402.41;;;13.10;100.00
19831;BME280;10076;52.008;4.708;2023-03-30T05:18:00;100400.53;;;13.01;100.00
19831;BME280;10076;52.008;4.708;2023-03-30T05:20:25;100399.31;;;13.05;100.00
19831;BME280;10076;52.008;4.708;2023-03-30T05:22:51;100407.69;;;13.10;100.00
19831;BME280;10076;52.008;4.708;2023-03-30T05:25:18;100411.03;;;13.02;100.00
19831;BME280;10076;52.008;4.708;2023-03-30T05:27:43;100426.59;;;12.96;100.00
19831;BME280;10076;52.008;4.708;2023-03-30T05:30:09;100424.19;;;13.13;100.00
19831;BME280;10076;52.008;4.708;2023-03-30T05:32:34;100412.66;;;12.94;100.00
19831;BME280;10076;52.008;4.708;2023-03-30T05:35:00;100427.47;;;12.96;100.00
19831;BME280;10076;52.008;4.708;2023-03-30T05:37:25;100437.53;;;13.02;100.00
19831;BME280;10076;52.008;4.708;2023-03-30T05:39:51;100428.13;;;12.98;100.00
19831;BME280;10076;52.008;4.708;2023-03-30T05:42:16;100435.28;;;12.98;100.00
19831;BME280;10076;52.008;4.708;2023-03-30T05:44:41;100423.16;;;13.05;100.00
19831;BME280;10076;52.008;4.708;2023-03-30T05:47:06;100429.56;;;13.02;100.00
19831;BME280;10076;52.008;4.708;2023-03-30T05:49:32;100425.44;;;12.89;100.00
19831;BME280;10076;52.008;4.708;2023-03-30T05:51:57;100429.69;;;13.01;100.00
19831;BME280;10076;52.008;4.708;2023-03-30T05:54:22;100426.06;;;13.02;100.00
19831;BME280;10076;52.008;4.708;2023-03-30T05:56:48;100438.41;;;13.12;100.00
19831;BME280;10076;52.008;4.708;2023-03-30T05:59:13;100447.84;;;13.05;100.00
19831;BME280;10076;52.008;4.708;2023-03-30T06:01:38;100463.50;;;13.17;100.00
19831;BME280;10076;52.008;4.708;2023-03-30T06:04:04;100454.25;;;13.32;100.00
19831;BME280;10076;52.008;4.708;2023-03-30T06:06:30;100440.13;;;13.22;100.00
19831;BME280;10076;52.008;4.708;2023-03-30T06:08:55;100454.06;;;13.24;100.00
19831;BME280;10076;52.008;4.708;2023-03-30T06:11:21;100458.22;;;13.17;100.00
19831;BME280;10076;52.008;4.708;2023-03-30T06:13:46;100458.53;;;13.24;100.00
19831;BME280;10076;52.008;4.708;2023-03-30T06:16:11;100467.72;;;13.20;100.00
19831;BME280;10076;52.008;4.708;2023-03-30T06:18:37;100467.31;;;13.24;100.00
19831;BME280;10076;52.008;4.708;2023-03-30T06:21:04;100459.69;;;13.31;100.00
19831;BME280;10076;52.008;4.708;2023-03-30T06:23:34;100456.47;;;13.27;100.00
19831;BME280;10076;52.008;4.708;2023-03-30T06:26:01;100472.03;;;13.21;100.00
19831;BME280;10076;52.008;4.708;2023-03-30T06:28:27;100470.00;;;13.34;100.00
19831;BME280;10076;52.008;4.708;2023-03-30T06:30:52;100472.91;;;13.21;100.00
19831;BME280;10076;52.008;4.708;2023-03-30T06:33:18;100469.28;;;13.22;100.00
19831;BME280;10076;52.008;4.708;2023-03-30T06:35:48;100469.44;;;13.30;100.00
19831;BME280;10076;52.008;4.708;2023-03-30T06:38:15;100502.41;;;13.37;100.00
19831;BME280;10076;52.008;4.708;2023-03-30T06:40:41;100484.47;;;13.20;100.00
19831;BME280;10076;52.008;4.708;2023-03-30T06:43:15;100501.94;;;13.23;100.00
19831;BME280;10076;52.008;4.708;2023-03-30T06:45:41;100486.84;;;13.23;100.00
19831;BME280;10076;52.008;4.708;2023-03-30T06:48:06;100490.34;;;13.24;100.00
19831;BME280;10076;52.008;4.708;2023-03-30T06:50:32;100493.16;;;13.32;100.00
19831;BME280;10076;52.008;4.708;2023-03-30T06:52:57;100492.44;;;13.20;100.00
19831;BME280;10076;52.008;4.708;2023-03-30T06:55:23;100502.19;;;13.20;100.00
19831;BME280;10076;52.008;4.708;2023-03-30T06:57:48;100497.97;;;13.17;100.00
19831;BME280;10076;52.008;4.708;2023-03-30T07:00:14;100502.75;;;13.23;100.00
19831;BME280;10076;52.008;4.708;2023-03-30T07:02:40;100498.97;;;13.16;100.00
19831;BME280;10076;52.008;4.708;2023-03-30T07:05:06;100498.47;;;13.32;100.00
19831;BME280;10076;52.008;4.708;2023-03-30T07:07:32;100503.94;;;13.40;100.00
19831;BME280;10076;52.008;4.708;2023-03-30T07:09:58;100502.13;;;13.40;100.00
19831;BME280;10076;52.008;4.708;2023-03-30T07:12:23;100515.28;;;13.42;100.00
19831;BME280;10076;52.008;4.708;2023-03-30T07:14:49;100519.88;;;13.40;100.00
19831;BME280;10076;52.008;4.708;2023-03-30T07:17:14;100521.16;;;13.45;100.00
19831;BME280;10076;52.008;4.708;2023-03-30T07:19:39;100532.34;;;13.58;100.00
19831;BME280;10076;52.008;4.708;2023-03-30T07:22:05;100529.16;;;13.64;100.00
19831;BME280;10076;52.008;4.708;2023-03-30T07:24:31;100526.69;;;13.72;100.00
19831;BME280;10076;52.008;4.708;2023-03-30T07:26:57;100521.94;;;13.76;100.00
19831;BME280;10076;52.008;4.708;2023-03-30T07:29:23;100526.41;;;13.75;100.00
19831;BME280;10076;52.008;4.708;2023-03-30T07:31:48;100525.75;;;13.82;100.00
19831;BME280;10076;52.008;4.708;2023-03-30T07:34:15;100536.06;;;13.85;100.00
19831;BME280;10076;52.008;4.708;2023-03-30T07:36:41;100555.06;;;13.90;100.00
19831;BME280;10076;52.008;4.708;2023-03-30T07:39:06;100533.03;;;13.90;100.00
19831;BME280;10076;52.008;4.708;2023-03-30T07:41:32;100550.44;;;13.83;100.00
19831;BME280;10076;52.008;4.708;2023-03-30T07:43:57;100555.41;;;13.97;100.00
19831;BME280;10076;52.008;4.708;2023-03-30T07:46:23;100552.84;;;13.86;100.00
19831;BME280;10076;52.008;4.708;2023-03-30T07:48:48;100555.41;;;13.97;100.00
19831;BME280;10076;52.008;4.708;2023-03-30T07:51:13;100568.66;;;13.97;100.00
19831;BME280;10076;52.008;4.708;2023-03-30T07:53:39;100574.47;;;13.81;100.00
19831;BME280;10076;52.008;4.708;2023-03-30T07:56:05;100556.06;;;13.80;100.00
19831;BME280;10076;52.008;4.708;2023-03-30T07:58:31;100569.91;;;13.93;100.00
19831;BME280;10076;52.008;4.708;2023-03-30T08:00:57;100572.53;;;13.93;100.00
19831;BME280;10076;52.008;4.708;2023-03-30T08:03:22;100560.28;;;13.92;100.00
19831;BME280;10076;52.008;4.708;2023-03-30T08:05:56;100554.78;;;13.84;100.00
19831;BME280;10076;52.008;4.708;2023-03-30T08:08:24;100567.63;;;13.79;100.00
19831;BME280;10076;52.008;4.708;2023-03-30T08:10:50;100566.41;;;13.92;100.00
19831;BME280;10076;52.008;4.708;2023-03-30T08:13:15;100559.34;;;14.12;100.00
19831;BME280;10076;52.008;4.708;2023-03-30T08:15:41;100571.28;;;14.27;100.00
19831;BME280;10076;52.008;4.708;2023-03-30T08:18:06;100564.41;;;14.34;100.00
19831;BME280;10076;52.008;4.708;2023-03-30T08:20:36;100564.28;;;14.45;100.00
19831;BME280;10076;52.008;4.708;2023-03-30T08:23:02;100570.44;;;14.45;100.00
19831;BME280;10076;52.008;4.708;2023-03-30T08:25:28;100581.22;;;14.44;100.00
19831;BME280;10076;52.008;4.708;2023-03-30T08:27:53;100584.16;;;14.59;100.00
19831;BME280;10076;52.008;4.708;2023-03-30T08:30:18;100577.59;;;14.73;100.00
19831;BME280;10076;52.008;4.708;2023-03-30T08:32:44;100577.59;;;14.82;100.00
19831;BME280;10076;52.008;4.708;2023-03-30T08:35:09;100583.19;;;14.70;100.00
19831;BME280;10076;52.008;4.708;2023-03-30T08:37:37;100570.31;;;14.47;100.00
19831;BME280;10076;52.008;4.708;2023-03-30T08:40:03;100577.44;;;14.65;100.00
19831;BME280;10076;52.008;4.708;2023-03-30T08:45:33;100576.59;;;14.93;100.00
19831;BME280;10076;52.008;4.708;2023-03-30T08:48:00;100589.28;;;15.27;100.00
19831;BME280;10076;52.008;4.708;2023-03-30T08:50:30;100578.22;;;15.31;100.00
19831;BME280;10076;52.008;4.708;2023-03-30T08:52:56;100580.00;;;15.40;100.00
19831;BME280;10076;52.008;4.708;2023-03-30T08:55:31;100580.41;;;15.45;100.00
19831;BME280;10076;52.008;4.708;2023-03-30T08:58:14;100580.66;;;15.61;100.00
19831;BME280;10076;52.008;4.708;2023-03-30T09:00:55;100579.63;;;15.72;100.00
19831;BME280;10076;52.008;4.708;2023-03-30T09:06:29;100602.84;;;15.89;100.00
19831;BME280;10076;52.008;4.708;2023-03-30T09:09:02;100603.31;;;15.75;100.00
19831;BME280;10076;52.008;4.708;2023-03-30T09:11:33;100610.69;;;15.81;100.00
19831;BME280;10076;52.008;4.708;2023-03-30T09:14:03;100605.97;;;15.75;100.00
19831;BME280;10076;52.008;4.708;2023-03-30T09:18:56;100610.63;;;15.63;100.00
19831;BME280;10076;52.008;4.708;2023-03-30T09:21:24;100614.88;;;15.47;100.00
19831;BME280;10076;52.008;4.708;2023-03-30T09:23:55;100613.78;;;15.40;100.00
19831;BME280;10076;52.008;4.708;2023-03-30T09:26:34;100626.38;;;15.38;100.00
19831;BME280;10076;52.008;4.708;2023-03-30T09:29:10;100621.13;;;15.65;100.00
19831;BME280;10076;52.008;4.708;2023-03-30T09:31:40;100626.63;;;16.17;100.00
19831;BME280;10076;52.008;4.708;2023-03-30T09:37:11;100625.25;;;16.84;100.00
19831;BME280;10076;52.008;4.708;2023-03-30T09:39:37;100622.19;;;16.79;100.00
19831;BME280;10076;52.008;4.708;2023-03-30T09:44:38;100621.25;;;17.05;100.00
19831;BME280;10076;52.008;4.708;2023-03-30T09:49:40;100641.50;;;18.42;100.00
19831;BME280;10076;52.008;4.708;2023-03-30T09:52:06;100637.06;;;17.92;100.00
19831;BME280;10076;52.008;4.708;2023-03-30T09:54:40;100642.69;;;17.81;100.00
19831;BME280;10076;52.008;4.708;2023-03-30T09:57:22;100637.59;;;18.29;100.00
19831;BME280;10076;52.008;4.708;2023-03-30T09:59:47;100634.56;;;18.73;100.00
19831;BME280;10076;52.008;4.708;2023-03-30T10:07:35;100642.59;;;18.24;100.00
19831;BME280;10076;52.008;4.708;2023-03-30T10:10:35;100649.91;;;17.38;100.00
19831;BME280;10076;52.008;4.708;2023-03-30T10:13:11;100647.19;;;16.78;100.00
19831;BME280;10076;52.008;4.708;2023-03-30T10:15:39;100661.34;;;17.13;100.00
19831;BME280;10076;52.008;4.708;2023-03-30T10:20:46;100649.25;;;17.61;100.00
19831;BME280;10076;52.008;4.708;2023-03-30T10:23:17;100666.69;;;16.96;100.00
19831;BME280;10076;52.008;4.708;2023-03-30T10:25:44;100667.00;;;17.28;100.00
19831;BME280;10076;52.008;4.708;2023-03-30T10:28:25;100651.53;;;18.07;100.00
19831;BME280;10076;52.008;4.708;2023-03-30T10:31:01;100661.97;;;18.67;100.00
19831;BME280;10076;52.008;4.708;2023-03-30T10:33:29;100654.97;;;19.77;100.00
19831;BME280;10076;52.008;4.708;2023-03-30T10:35:59;100658.00;;;19.74;100.00
19831;BME280;10076;52.008;4.708;2023-03-30T10:38:31;100674.28;;;19.09;100.00
19831;BME280;10076;52.008;4.708;2023-03-30T10:41:05;100660.75;;;18.54;100.00
19831;BME280;10076;52.008;4.708;2023-03-30T10:43:32;100673.22;;;18.94;100.00
19831;BME280;10076;52.008;4.708;2023-03-30T10:46:06;100660.47;;;17.98;100.00
19831;BME280;10076;52.008;4.708;2023-03-30T10:57:11;100682.47;;;17.84;100.00
19831;BME280;10076;52.008;4.708;2023-03-30T10:59:49;100680.78;;;17.83;100.00
19831;BME280;10076;52.008;4.708;2023-03-30T11:05:09;100673.13;;;17.63;100.00
19831;BME280;10076;52.008;4.708;2023-03-30T11:10:19;100687.22;;;16.95;100.00
19831;BME280;10076;52.008;4.708;2023-03-30T11:12:50;100683.78;;;17.37;100.00
19831;BME280;10076;52.008;4.708;2023-03-30T11:15:47;100677.66;;;17.45;100.00
19831;BME280;10076;52.008;4.708;2023-03-30T11:18:16;100691.09;;;17.01;100.00
19831;BME280;10076;52.008;4.708;2023-03-30T11:21:04;100672.78;;;16.71;100.00
19831;BME280;10076;52.008;4.708;2023-03-30T11:23:54;100680.31;;;16.31;100.00
19831;BME280;10076;52.008;4.708;2023-03-30T11:26:33;100687.16;;;16.61;100.00
19831;BME280;10076;52.008;4.708;2023-03-30T11:29:12;100682.53;;;16.26;100.00
19831;BME280;10076;52.008;4.708;2023-03-30T11:32:01;100698.97;;;16.22;100.00
19831;BME280;10076;52.008;4.708;2023-03-30T11:37:24;100696.31;;;16.22;100.00
19831;BME280;10076;52.008;4.708;2023-03-30T11:40:16;100685.81;;;16.20;100.00
19831;BME280;10076;52.008;4.708;2023-03-30T11:42:43;100685.84;;;16.11;100.00
19831;BME280;10076;52.008;4.708;2023-03-30T11:45:51;100697.59;;;15.72;100.00
19831;BME280;10076;52.008;4.708;2023-03-30T11:48:29;100713.34;;;15.37;100.00
19831;BME280;10076;52.008;4.708;2023-03-30T11:56:36;100706.91;;;15.40;100.00
19831;BME280;10076;52.008;4.708;2023-03-30T11:59:05;100713.56;;;15.82;100.00
19831;BME280;10076;52.008;4.708;2023-03-30T12:04:32;100712.25;;;17.29;100.00
19831;BME280;10076;52.008;4.708;2023-03-30T12:07:00;100712.94;;;16.87;100.00
19831;BME280;10076;52.008;4.708;2023-03-30T12:09:31;100716.28;;;16.45;100.00
19831;BME280;10076;52.008;4.708;2023-03-30T12:15:01;100719.47;;;15.66;100.00
19831;BME280;10076;52.008;4.708;2023-03-30T12:17:33;100724.97;;;15.65;100.00
19831;BME280;10076;52.008;4.708;2023-03-30T12:28:55;100725.63;;;15.10;100.00
19831;BME280;10076;52.008;4.708;2023-03-30T12:34:18;100721.94;;;14.73;100.00
19831;BME280;10076;52.008;4.708;2023-03-30T12:41:42;100730.66;;;14.36;100.00
19831;BME280;10076;52.008;4.708;2023-03-30T12:50:03;100725.94;;;15.07;100.00
19831;BME280;10076;52.008;4.708;2023-03-30T12:58:22;100701.47;;;16.23;100.00
19831;BME280;10076;52.008;4.708;2023-03-30T13:01:11;100704.28;;;17.37;100.00
19831;BME280;10076;52.008;4.708;2023-03-30T13:03:44;100714.34;;;17.43;100.00
19831;BME280;10076;52.008;4.708;2023-03-30T13:06:34;100703.38;;;17.29;100.00
19831;BME280;10076;52.008;4.708;2023-03-30T13:22:23;100689.16;;;18.55;100.00
19831;BME280;10076;52.008;4.708;2023-03-30T13:25:01;100684.53;;;18.72;100.00
19831;BME280;10076;52.008;4.708;2023-03-30T13:27:35;100679.09;;;19.06;100.00
19831;BME280;10076;52.008;4.708;2023-03-30T13:30:11;100686.00;;;18.51;100.00
19831;BME280;10076;52.008;4.708;2023-03-30T13:32:47;100676.84;;;18.20;100.00
19831;BME280;10076;52.008;4.708;2023-03-30T13:52:11;100708.38;;;21.40;100.00
19831;BME280;10076;52.008;4.708;2023-03-30T13:54:38;100671.06;;;21.45;100.00
19831;BME280;10076;52.008;4.708;2023-03-30T13:57:12;100664.72;;;21.60;100.00
19831;BME280;10076;52.008;4.708;2023-03-30T13:59:44;100672.31;;;21.56;100.00
19831;BME280;10076;52.008;4.708;2023-03-30T14:02:16;100671.38;;;21.27;100.00
19831;BME280;10076;52.008;4.708;2023-03-30T14:04:43;100683.91;;;21.12;100.00
19831;BME280;10076;52.008;4.708;2023-03-30T14:07:15;100681.13;;;22.16;100.00
19831;BME280;10076;52.008;4.708;2023-03-30T14:09:41;100667.81;;;21.57;100.00
19831;BME280;10076;52.008;4.708;2023-03-30T14:12:07;100678.38;;;20.45;100.00
19831;BME280;10076;52.008;4.708;2023-03-30T14:14:38;100680.75;;;20.40;100.00
19831;BME280;10076;52.008;4.708;2023-03-30T14:17:21;100673.41;;;20.42;100.00
19831;BME280;10076;52.008;4.708;2023-03-30T14:22:45;100685.28;;;21.53;100.00
19831;BME280;10076;52.008;4.708;2023-03-30T14:25:40;100670.19;;;21.30;100.00
19831;BME280;10076;52.008;4.708;2023-03-30T14:28:16;100682.50;;;21.02;100.00
19831;BME280;10076;52.008;4.708;2023-03-30T14:30:59;100687.56;;;20.97;100.00
19831;BME280;10076;52.008;4.708;2023-03-30T14:33:28;100693.97;;;20.50;100.00
19831;BME280;10076;52.008;4.708;2023-03-30T14:35:56;100689.88;;;20.70;100.00
19831;BME280;10076;52.008;4.708;2023-03-30T14:38:25;100683.53;;;20.93;100.00
19831;BME280;10076;52.008;4.708;2023-03-30T14:40:54;100699.06;;;20.75;100.00
19831;BME280;10076;52.008;4.708;2023-03-30T14:43:22;100688.44;;;20.51;100.00
19831;BME280;10076;52.008;4.708;2023-03-30T14:45:50;100692.16;;;20.50;100.00
19831;BME280;10076;52.008;4.708;2023-03-30T14:48:30;100687.94;;;20.10;100.00
19831;BME280;10076;52.008;4.708;2023-03-30T14:50:57;100680.16;;;20.22;100.00
19831;BME280;10076;52.008;4.708;2023-03-30T14:53:25;100677.06;;;19.79;100.00
19831;BME280;10076;52.008;4.708;2023-03-30T14:55:52;100673.59;;;19.47;100.00
19831;BME280;10076;52.008;4.708;2023-03-30T14:58:22;100681.31;;;19.50;100.00
19831;BME280;10076;52.008;4.708;2023-03-30T15:00:49;100674.38;;;18.84;100.00
19831;BME280;10076;52.008;4.708;2023-03-30T15:03:14;100679.00;;;18.66;100.00
19831;BME280;10076;52.008;4.708;2023-03-30T15:05:41;100662.84;;;18.01;100.00
19831;BME280;10076;52.008;4.708;2023-03-30T15:08:15;100656.16;;;18.30;100.00
19831;BME280;10076;52.008;4.708;2023-03-30T15:10:48;100664.03;;;18.40;100.00
19831;BME280;10076;52.008;4.708;2023-03-30T15:13:22;100653.88;;;18.43;100.00
19831;BME280;10076;52.008;4.708;2023-03-30T15:15:48;100664.78;;;17.91;100.00
19831;BME280;10076;52.008;4.708;2023-03-30T15:18:19;100658.91;;;17.62;100.00
19831;BME280;10076;52.008;4.708;2023-03-30T15:20:47;100656.25;;;17.62;100.00
19831;BME280;10076;52.008;4.708;2023-03-30T15:23:12;100664.16;;;17.46;100.00
19831;BME280;10076;52.008;4.708;2023-03-30T15:25:38;100671.97;;;17.05;100.00